sensor_id;sensor_type;location;lat;lon;timestamp;P1;durP1;ratioP1;P2;durP2;ratioP2
19664;SDS011;9980;51.020;7.772;2023-01-20T00:01:38;27.10;;;14.43;;
19664;SDS011;9980;51.020;7.772;2023-01-20T00:04:11;38.17;;;19.63;;
19664;SDS011;9980;51.020;7.772;2023-01-20T00:06:37;38.37;;;18.53;;
19664;SDS011;9980;51.020;7.772;2023-01-20T00:09:04;45.80;;;21.50;;
19664;SDS011;9980;51.020;7.772;2023-01-20T00:11:30;28.27;;;16.90;;
19664;SDS011;9980;51.020;7.772;2023-01-20T00:13:58;26.67;;;16.47;;
19664;SDS011;9980;51.020;7.772;2023-01-20T00:16:26;25.10;;;16.57;;
19664;SDS011;9980;51.020;7.772;2023-01-20T00:18:56;24.17;;;15.50;;
19664;SDS011;9980;51.020;7.772;2023-01-20T00:21:22;18.93;;;13.57;;
19664;SDS011;9980;51.020;7.772;2023-01-20T00:23:48;23.97;;;14.80;;
19664;SDS011;9980;51.020;7.772;2023-01-20T00:26:16;20.47;;;14.00;;
19664;SDS011;9980;51.020;7.772;2023-01-20T00:28:45;15.07;;;12.40;;
19664;SDS011;9980;51.020;7.772;2023-01-20T00:33:50;21.43;;;13.97;;
19664;SDS011;9980;51.020;7.772;2023-01-20T00:36:19;15.93;;;12.73;;
19664;SDS011;9980;51.020;7.772;2023-01-20T00:38:47;17.80;;;13.57;;
19664;SDS011;9980;51.020;7.772;2023-01-20T00:41:14;18.07;;;13.37;;
19664;SDS011;9980;51.020;7.772;2023-01-20T00:43:42;17.27;;;14.20;;
19664;SDS011;9980;51.020;7.772;2023-01-20T00:46:09;14.53;;;11.70;;
19664;SDS011;9980;51.020;7.772;2023-01-20T00:48:36;18.93;;;12.93;;
19664;SDS011;9980;51.020;7.772;2023-01-20T00:51:03;18.37;;;11.93;;
19664;SDS011;9980;51.020;7.772;2023-01-20T00:53:31;12.77;;;10.17;;
19664;SDS011;9980;51.020;7.772;2023-01-20T00:55:58;14.80;;;12.30;;
19664;SDS011;9980;51.020;7.772;2023-01-20T00:58:24;16.97;;;12.60;;
19664;SDS011;9980;51.020;7.772;2023-01-20T01:00:51;15.07;;;13.30;;
19664;SDS011;9980;51.020;7.772;2023-01-20T01:03:19;16.37;;;13.17;;
19664;SDS011;9980;51.020;7.772;2023-01-20T01:05:46;15.67;;;12.83;;
19664;SDS011;9980;51.020;7.772;2023-01-20T01:08:12;18.40;;;13.13;;
19664;SDS011;9980;51.020;7.772;2023-01-20T01:10:39;17.17;;;13.40;;
19664;SDS011;9980;51.020;7.772;2023-01-20T01:13:05;17.87;;;12.97;;
19664;SDS011;9980;51.020;7.772;2023-01-20T01:15:32;22.47;;;14.73;;
19664;SDS011;9980;51.020;7.772;2023-01-20T01:17:59;17.27;;;11.80;;
19664;SDS011;9980;51.020;7.772;2023-01-20T01:20:26;20.30;;;13.57;;
19664;SDS011;9980;51.020;7.772;2023-01-20T01:22:53;14.07;;;12.13;;
19664;SDS011;9980;51.020;7.772;2023-01-20T01:25:20;19.13;;;14.50;;
19664;SDS011;9980;51.020;7.772;2023-01-20T01:27:47;15.07;;;12.67;;
19664;SDS011;9980;51.020;7.772;2023-01-20T01:30:13;14.63;;;11.70;;
19664;SDS011;9980;51.020;7.772;2023-01-20T01:32:39;15.23;;;11.43;;
19664;SDS011;9980;51.020;7.772;2023-01-20T01:35:05;20.63;;;14.00;;
19664;SDS011;9980;51.020;7.772;2023-01-20T01:37:32;19.37;;;13.03;;
19664;SDS011;9980;51.020;7.772;2023-01-20T01:39:58;21.03;;;15.53;;
19664;SDS011;9980;51.020;7.772;2023-01-20T01:42:25;17.97;;;14.00;;
19664;SDS011;9980;51.020;7.772;2023-01-20T01:47:47;18.10;;;14.63;;
19664;SDS011;9980;51.020;7.772;2023-01-20T01:50:31;21.13;;;15.53;;
19664;SDS011;9980;51.020;7.772;2023-01-20T01:53:59;26.70;;;15.43;;
19664;SDS011;9980;51.020;7.772;2023-01-20T01:56:35;19.40;;;14.57;;
19664;SDS011;9980;51.020;7.772;2023-01-20T01:59:06;21.87;;;15.30;;
19664;SDS011;9980;51.020;7.772;2023-01-20T02:01:35;17.20;;;11.90;;
19664;SDS011;9980;51.020;7.772;2023-01-20T02:04:09;19.97;;;15.73;;
19664;SDS011;9980;51.020;7.772;2023-01-20T02:06:41;20.37;;;14.87;;
19664;SDS011;9980;51.020;7.772;2023-01-20T02:09:11;23.80;;;16.10;;
19664;SDS011;9980;51.020;7.772;2023-01-20T02:11:39;20.30;;;13.90;;
19664;SDS011;9980;51.020;7.772;2023-01-20T02:14:16;24.07;;;16.17;;
19664;SDS011;9980;51.020;7.772;2023-01-20T02:16:51;21.73;;;16.67;;
19664;SDS011;9980;51.020;7.772;2023-01-20T02:34:55;24.87;;;16.27;;
19664;SDS011;9980;51.020;7.772;2023-01-20T02:37:38;22.60;;;16.53;;
19664;SDS011;9980;51.020;7.772;2023-01-20T02:43:18;24.50;;;16.57;;
19664;SDS011;9980;51.020;7.772;2023-01-20T02:55:03;22.17;;;15.03;;
19664;SDS011;9980;51.020;7.772;2023-01-20T02:57:36;19.30;;;13.37;;
19664;SDS011;9980;51.020;7.772;2023-01-20T03:00:14;22.20;;;14.73;;
19664;SDS011;9980;51.020;7.772;2023-01-20T03:02:49;19.97;;;13.63;;
19664;SDS011;9980;51.020;7.772;2023-01-20T03:05:21;18.07;;;13.63;;
19664;SDS011;9980;51.020;7.772;2023-01-20T03:07:57;17.97;;;13.87;;
19664;SDS011;9980;51.020;7.772;2023-01-20T03:10:29;16.83;;;13.23;;
19664;SDS011;9980;51.020;7.772;2023-01-20T03:13:02;20.60;;;13.60;;
19664;SDS011;9980;51.020;7.772;2023-01-20T03:15:35;22.47;;;14.73;;
19664;SDS011;9980;51.020;7.772;2023-01-20T03:18:23;17.27;;;12.60;;
19664;SDS011;9980;51.020;7.772;2023-01-20T03:20:53;19.30;;;13.47;;
19664;SDS011;9980;51.020;7.772;2023-01-20T03:23:19;22.63;;;14.53;;
19664;SDS011;9980;51.020;7.772;2023-01-20T03:25:46;18.70;;;13.97;;
19664;SDS011;9980;51.020;7.772;2023-01-20T03:28:15;18.90;;;13.47;;
19664;SDS011;9980;51.020;7.772;2023-01-20T03:30:41;17.97;;;13.90;;
19664;SDS011;9980;51.020;7.772;2023-01-20T03:33:07;18.40;;;14.33;;
19664;SDS011;9980;51.020;7.772;2023-01-20T03:35:37;23.07;;;15.43;;
19664;SDS011;9980;51.020;7.772;2023-01-20T03:38:04;20.40;;;13.23;;
19664;SDS011;9980;51.020;7.772;2023-01-20T03:40:35;19.33;;;14.23;;
19664;SDS011;9980;51.020;7.772;2023-01-20T03:43:14;20.33;;;14.97;;
19664;SDS011;9980;51.020;7.772;2023-01-20T03:46:01;18.97;;;13.03;;
19664;SDS011;9980;51.020;7.772;2023-01-20T03:48:50;19.60;;;13.70;;
19664;SDS011;9980;51.020;7.772;2023-01-20T03:51:54;21.07;;;12.87;;
19664;SDS011;9980;51.020;7.772;2023-01-20T03:54:48;24.67;;;13.63;;
19664;SDS011;9980;51.020;7.772;2023-01-20T03:57:29;16.57;;;11.87;;
19664;SDS011;9980;51.020;7.772;2023-01-20T04:00:03;19.73;;;14.10;;
19664;SDS011;9980;51.020;7.772;2023-01-20T04:02:36;22.40;;;13.43;;
19664;SDS011;9980;51.020;7.772;2023-01-20T04:05:06;18.63;;;14.27;;
19664;SDS011;9980;51.020;7.772;2023-01-20T04:07:34;19.17;;;14.13;;
19664;SDS011;9980;51.020;7.772;2023-01-20T04:10:09;18.13;;;14.07;;
19664;SDS011;9980;51.020;7.772;2023-01-20T04:12:40;18.20;;;12.53;;
19664;SDS011;9980;51.020;7.772;2023-01-20T04:15:06;16.87;;;13.87;;
19664;SDS011;9980;51.020;7.772;2023-01-20T04:17:33;20.03;;;13.73;;
19664;SDS011;9980;51.020;7.772;2023-01-20T04:20:05;17.77;;;14.03;;
19664;SDS011;9980;51.020;7.772;2023-01-20T04:22:51;18.60;;;14.00;;
19664;SDS011;9980;51.020;7.772;2023-01-20T04:25:25;17.60;;;14.07;;
19664;SDS011;9980;51.020;7.772;2023-01-20T04:27:54;20.60;;;14.60;;
19664;SDS011;9980;51.020;7.772;2023-01-20T04:30:21;16.20;;;12.47;;
19664;SDS011;9980;51.020;7.772;2023-01-20T04:32:47;21.87;;;14.17;;
19664;SDS011;9980;51.020;7.772;2023-01-20T04:35:14;28.07;;;17.63;;
19664;SDS011;9980;51.020;7.772;2023-01-20T04:37:43;16.27;;;13.93;;
19664;SDS011;9980;51.020;7.772;2023-01-20T04:40:10;16.47;;;12.97;;
19664;SDS011;9980;51.020;7.772;2023-01-20T04:42:36;19.37;;;14.83;;
19664;SDS011;9980;51.020;7.772;2023-01-20T04:45:03;15.23;;;11.93;;
19664;SDS011;9980;51.020;7.772;2023-01-20T04:47:30;18.70;;;14.00;;
19664;SDS011;9980;51.020;7.772;2023-01-20T04:49:58;19.43;;;14.60;;
19664;SDS011;9980;51.020;7.772;2023-01-20T04:52:24;16.37;;;13.20;;
19664;SDS011;9980;51.020;7.772;2023-01-20T04:54:50;18.97;;;13.43;;
19664;SDS011;9980;51.020;7.772;2023-01-20T04:57:17;20.03;;;14.47;;
19664;SDS011;9980;51.020;7.772;2023-01-20T04:59:43;18.83;;;14.03;;
19664;SDS011;9980;51.020;7.772;2023-01-20T05:02:09;16.80;;;12.60;;
19664;SDS011;9980;51.020;7.772;2023-01-20T05:04:35;19.83;;;14.17;;
19664;SDS011;9980;51.020;7.772;2023-01-20T05:07:02;17.40;;;12.73;;
19664;SDS011;9980;51.020;7.772;2023-01-20T05:09:28;16.70;;;12.77;;
19664;SDS011;9980;51.020;7.772;2023-01-20T05:11:55;17.50;;;14.10;;
19664;SDS011;9980;51.020;7.772;2023-01-20T05:14:21;17.83;;;13.57;;
19664;SDS011;9980;51.020;7.772;2023-01-20T05:16:47;16.07;;;12.13;;
19664;SDS011;9980;51.020;7.772;2023-01-20T05:19:13;15.40;;;11.70;;
19664;SDS011;9980;51.020;7.772;2023-01-20T05:21:42;23.53;;;13.77;;
19664;SDS011;9980;51.020;7.772;2023-01-20T05:24:09;21.57;;;14.63;;
19664;SDS011;9980;51.020;7.772;2023-01-20T05:26:35;21.23;;;13.83;;
19664;SDS011;9980;51.020;7.772;2023-01-20T05:29:01;12.77;;;10.63;;
19664;SDS011;9980;51.020;7.772;2023-01-20T05:31:28;21.40;;;11.93;;
19664;SDS011;9980;51.020;7.772;2023-01-20T05:33:54;15.37;;;12.60;;
19664;SDS011;9980;51.020;7.772;2023-01-20T05:36:20;17.07;;;12.97;;
19664;SDS011;9980;51.020;7.772;2023-01-20T05:38:47;17.87;;;13.23;;
19664;SDS011;9980;51.020;7.772;2023-01-20T05:41:13;21.47;;;13.87;;
19664;SDS011;9980;51.020;7.772;2023-01-20T05:43:39;15.97;;;13.77;;
19664;SDS011;9980;51.020;7.772;2023-01-20T05:46:05;14.80;;;12.03;;
19664;SDS011;9980;51.020;7.772;2023-01-20T05:48:32;15.43;;;11.87;;
19664;SDS011;9980;51.020;7.772;2023-01-20T05:50:58;15.17;;;11.23;;
19664;SDS011;9980;51.020;7.772;2023-01-20T05:53:24;14.50;;;11.73;;
19664;SDS011;9980;51.020;7.772;2023-01-20T05:55:57;16.13;;;11.67;;
19664;SDS011;9980;51.020;7.772;2023-01-20T05:58:28;14.73;;;12.40;;
19664;SDS011;9980;51.020;7.772;2023-01-20T06:01:06;15.73;;;12.03;;
19664;SDS011;9980;51.020;7.772;2023-01-20T06:03:35;17.87;;;13.70;;
19664;SDS011;9980;51.020;7.772;2023-01-20T06:06:03;15.83;;;12.97;;
19664;SDS011;9980;51.020;7.772;2023-01-20T06:08:32;21.00;;;14.20;;
19664;SDS011;9980;51.020;7.772;2023-01-20T06:11:00;15.03;;;11.90;;
19664;SDS011;9980;51.020;7.772;2023-01-20T06:13:26;20.43;;;14.03;;
19664;SDS011;9980;51.020;7.772;2023-01-20T06:15:52;17.03;;;14.13;;
19664;SDS011;9980;51.020;7.772;2023-01-20T06:18:20;14.47;;;12.13;;
19664;SDS011;9980;51.020;7.772;2023-01-20T06:20:47;17.97;;;13.43;;
19664;SDS011;9980;51.020;7.772;2023-01-20T06:23:14;16.27;;;13.23;;
19664;SDS011;9980;51.020;7.772;2023-01-20T06:25:40;13.73;;;12.23;;
19664;SDS011;9980;51.020;7.772;2023-01-20T06:28:07;21.27;;;14.47;;
19664;SDS011;9980;51.020;7.772;2023-01-20T06:30:33;17.27;;;13.57;;
19664;SDS011;9980;51.020;7.772;2023-01-20T06:33:00;20.23;;;14.57;;
19664;SDS011;9980;51.020;7.772;2023-01-20T06:35:26;19.67;;;14.87;;
19664;SDS011;9980;51.020;7.772;2023-01-20T06:37:52;15.30;;;11.77;;
19664;SDS011;9980;51.020;7.772;2023-01-20T06:40:23;18.67;;;13.07;;
19664;SDS011;9980;51.020;7.772;2023-01-20T06:42:49;17.53;;;14.03;;
19664;SDS011;9980;51.020;7.772;2023-01-20T06:45:15;19.10;;;13.87;;
19664;SDS011;9980;51.020;7.772;2023-01-20T06:47:42;17.87;;;13.83;;
19664;SDS011;9980;51.020;7.772;2023-01-20T06:50:08;22.57;;;16.47;;
19664;SDS011;9980;51.020;7.772;2023-01-20T06:52:34;23.70;;;16.63;;
19664;SDS011;9980;51.020;7.772;2023-01-20T06:55:00;16.70;;;12.67;;
19664;SDS011;9980;51.020;7.772;2023-01-20T06:57:27;24.30;;;15.40;;
19664;SDS011;9980;51.020;7.772;2023-01-20T06:59:53;19.13;;;15.27;;
19664;SDS011;9980;51.020;7.772;2023-01-20T07:02:19;20.50;;;14.57;;
19664;SDS011;9980;51.020;7.772;2023-01-20T07:04:45;29.33;;;16.10;;
19664;SDS011;9980;51.020;7.772;2023-01-20T07:07:12;20.40;;;15.17;;
19664;SDS011;9980;51.020;7.772;2023-01-20T07:09:38;20.30;;;15.07;;
19664;SDS011;9980;51.020;7.772;2023-01-20T07:12:04;14.17;;;12.07;;
19664;SDS011;9980;51.020;7.772;2023-01-20T07:14:31;19.07;;;13.17;;
19664;SDS011;9980;51.020;7.772;2023-01-20T07:16:57;17.73;;;12.70;;
19664;SDS011;9980;51.020;7.772;2023-01-20T07:19:23;21.57;;;13.50;;
19664;SDS011;9980;51.020;7.772;2023-01-20T07:21:49;18.87;;;13.00;;
19664;SDS011;9980;51.020;7.772;2023-01-20T07:24:15;13.77;;;11.47;;
19664;SDS011;9980;51.020;7.772;2023-01-20T07:26:43;18.90;;;14.30;;
19664;SDS011;9980;51.020;7.772;2023-01-20T07:29:09;20.13;;;13.73;;
19664;SDS011;9980;51.020;7.772;2023-01-20T07:31:35;21.07;;;14.47;;
19664;SDS011;9980;51.020;7.772;2023-01-20T07:34:01;29.30;;;17.83;;
19664;SDS011;9980;51.020;7.772;2023-01-20T07:36:27;19.80;;;14.07;;
19664;SDS011;9980;51.020;7.772;2023-01-20T07:38:54;18.57;;;13.83;;
19664;SDS011;9980;51.020;7.772;2023-01-20T07:41:20;22.07;;;15.87;;
19664;SDS011;9980;51.020;7.772;2023-01-20T07:43:48;18.97;;;13.07;;
19664;SDS011;9980;51.020;7.772;2023-01-20T07:46:17;21.57;;;12.70;;
19664;SDS011;9980;51.020;7.772;2023-01-20T07:48:44;16.63;;;11.67;;
19664;SDS011;9980;51.020;7.772;2023-01-20T07:51:11;16.40;;;11.90;;
19664;SDS011;9980;51.020;7.772;2023-01-20T07:53:40;14.17;;;11.70;;
19664;SDS011;9980;51.020;7.772;2023-01-20T07:56:16;16.57;;;12.37;;
19664;SDS011;9980;51.020;7.772;2023-01-20T07:58:50;15.50;;;10.83;;
19664;SDS011;9980;51.020;7.772;2023-01-20T08:01:19;17.70;;;12.57;;
19664;SDS011;9980;51.020;7.772;2023-01-20T08:03:51;16.23;;;12.97;;
19664;SDS011;9980;51.020;7.772;2023-01-20T08:06:19;16.90;;;13.07;;
19664;SDS011;9980;51.020;7.772;2023-01-20T08:08:48;20.63;;;14.77;;
19664;SDS011;9980;51.020;7.772;2023-01-20T08:11:16;19.63;;;11.73;;
19664;SDS011;9980;51.020;7.772;2023-01-20T08:13:44;15.70;;;12.30;;
19664;SDS011;9980;51.020;7.772;2023-01-20T08:16:12;18.27;;;12.30;;
19664;SDS011;9980;51.020;7.772;2023-01-20T08:18:41;15.00;;;12.27;;
19664;SDS011;9980;51.020;7.772;2023-01-20T08:21:15;17.37;;;12.77;;
19664;SDS011;9980;51.020;7.772;2023-01-20T08:23:55;16.90;;;12.53;;
19664;SDS011;9980;51.020;7.772;2023-01-20T08:26:27;15.70;;;11.40;;
19664;SDS011;9980;51.020;7.772;2023-01-20T08:28:55;15.43;;;12.33;;
19664;SDS011;9980;51.020;7.772;2023-01-20T08:31:27;18.17;;;13.03;;
19664;SDS011;9980;51.020;7.772;2023-01-20T08:33:54;16.57;;;12.40;;
19664;SDS011;9980;51.020;7.772;2023-01-20T08:36:23;16.93;;;12.37;;
19664;SDS011;9980;51.020;7.772;2023-01-20T08:38:59;16.67;;;12.53;;
19664;SDS011;9980;51.020;7.772;2023-01-20T08:41:31;18.60;;;12.53;;
19664;SDS011;9980;51.020;7.772;2023-01-20T08:44:00;17.07;;;11.83;;
19664;SDS011;9980;51.020;7.772;2023-01-20T08:46:30;19.77;;;12.70;;
19664;SDS011;9980;51.020;7.772;2023-01-20T08:48:57;15.40;;;12.13;;
19664;SDS011;9980;51.020;7.772;2023-01-20T08:51:25;18.20;;;11.87;;
19664;SDS011;9980;51.020;7.772;2023-01-20T08:53:56;16.23;;;11.13;;
19664;SDS011;9980;51.020;7.772;2023-01-20T08:56:22;16.37;;;13.33;;
19664;SDS011;9980;51.020;7.772;2023-01-20T08:58:48;13.10;;;11.17;;
19664;SDS011;9980;51.020;7.772;2023-01-20T09:01:16;15.43;;;12.27;;
19664;SDS011;9980;51.020;7.772;2023-01-20T09:03:49;18.67;;;12.50;;
19664;SDS011;9980;51.020;7.772;2023-01-20T09:07:03;14.37;;;11.73;;
19664;SDS011;9980;51.020;7.772;2023-01-20T09:09:22;15.70;;;12.93;;
19664;SDS011;9980;51.020;7.772;2023-01-20T09:11:49;14.93;;;11.97;;
19664;SDS011;9980;51.020;7.772;2023-01-20T09:14:16;15.83;;;11.47;;
19664;SDS011;9980;51.020;7.772;2023-01-20T09:16:44;15.60;;;11.60;;
19664;SDS011;9980;51.020;7.772;2023-01-20T09:19:10;18.60;;;11.77;;
19664;SDS011;9980;51.020;7.772;2023-01-20T09:21:36;18.60;;;11.77;;
19664;SDS011;9980;51.020;7.772;2023-01-20T09:24:03;12.67;;;10.93;;
19664;SDS011;9980;51.020;7.772;2023-01-20T09:26:29;18.57;;;12.40;;
19664;SDS011;9980;51.020;7.772;2023-01-20T09:29:03;17.03;;;12.40;;
19664;SDS011;9980;51.020;7.772;2023-01-20T09:31:39;15.90;;;12.03;;
19664;SDS011;9980;51.020;7.772;2023-01-20T09:34:18;14.80;;;11.60;;
19664;SDS011;9980;51.020;7.772;2023-01-20T09:36:49;13.37;;;10.87;;
19664;SDS011;9980;51.020;7.772;2023-01-20T09:39:17;15.33;;;11.60;;
19664;SDS011;9980;51.020;7.772;2023-01-20T09:42:13;13.90;;;11.03;;
19664;SDS011;9980;51.020;7.772;2023-01-20T09:48:07;19.17;;;11.87;;
19664;SDS011;9980;51.020;7.772;2023-01-20T09:51:36;13.07;;;10.30;;
19664;SDS011;9980;51.020;7.772;2023-01-20T09:55:09;16.47;;;11.17;;
19664;SDS011;9980;51.020;7.772;2023-01-20T09:57:45;18.20;;;11.50;;
19664;SDS011;9980;51.020;7.772;2023-01-20T10:00:24;14.50;;;11.77;;
19664;SDS011;9980;51.020;7.772;2023-01-20T10:02:58;16.23;;;11.40;;
19664;SDS011;9980;51.020;7.772;2023-01-20T10:06:03;13.30;;;10.50;;
19664;SDS011;9980;51.020;7.772;2023-01-20T10:08:43;17.77;;;12.07;;
19664;SDS011;9980;51.020;7.772;2023-01-20T10:11:31;16.73;;;11.90;;
19664;SDS011;9980;51.020;7.772;2023-01-20T10:14:06;15.23;;;11.43;;
19664;SDS011;9980;51.020;7.772;2023-01-20T10:16:51;13.60;;;10.93;;
19664;SDS011;9980;51.020;7.772;2023-01-20T10:25:19;14.10;;;12.07;;
19664;SDS011;9980;51.020;7.772;2023-01-20T10:28:13;13.10;;;11.40;;
19664;SDS011;9980;51.020;7.772;2023-01-20T10:30:49;14.90;;;11.60;;
19664;SDS011;9980;51.020;7.772;2023-01-20T10:33:19;15.87;;;11.63;;
19664;SDS011;9980;51.020;7.772;2023-01-20T10:36:12;15.27;;;12.00;;
19664;SDS011;9980;51.020;7.772;2023-01-20T10:39:08;13.93;;;11.90;;
19664;SDS011;9980;51.020;7.772;2023-01-20T10:41:50;14.03;;;11.60;;
19664;SDS011;9980;51.020;7.772;2023-01-20T10:44:25;17.87;;;12.57;;
19664;SDS011;9980;51.020;7.772;2023-01-20T10:55:44;15.17;;;11.30;;
19664;SDS011;9980;51.020;7.772;2023-01-20T10:58:47;14.80;;;12.23;;
19664;SDS011;9980;51.020;7.772;2023-01-20T11:01:15;17.20;;;11.83;;
19664;SDS011;9980;51.020;7.772;2023-01-20T11:03:46;16.03;;;11.53;;
19664;SDS011;9980;51.020;7.772;2023-01-20T11:06:16;18.20;;;14.13;;
19664;SDS011;9980;51.020;7.772;2023-01-20T11:08:45;15.07;;;11.70;;
19664;SDS011;9980;51.020;7.772;2023-01-20T11:11:14;13.50;;;10.80;;
19664;SDS011;9980;51.020;7.772;2023-01-20T11:13:49;14.63;;;11.97;;
19664;SDS011;9980;51.020;7.772;2023-01-20T11:16:18;13.93;;;11.13;;
19664;SDS011;9980;51.020;7.772;2023-01-20T11:19:03;15.30;;;12.07;;
19664;SDS011;9980;51.020;7.772;2023-01-20T11:21:33;13.83;;;11.67;;
19664;SDS011;9980;51.020;7.772;2023-01-20T11:24:02;13.87;;;11.20;;
19664;SDS011;9980;51.020;7.772;2023-01-20T11:27:01;13.93;;;11.30;;
19664;SDS011;9980;51.020;7.772;2023-01-20T11:29:30;16.60;;;12.43;;
19664;SDS011;9980;51.020;7.772;2023-01-20T11:32:19;15.80;;;12.53;;
19664;SDS011;9980;51.020;7.772;2023-01-20T11:34:59;14.00;;;12.00;;
19664;SDS011;9980;51.020;7.772;2023-01-20T11:37:45;14.17;;;11.97;;
19664;SDS011;9980;51.020;7.772;2023-01-20T11:40:29;15.47;;;11.57;;
19664;SDS011;9980;51.020;7.772;2023-01-20T11:42:55;18.07;;;13.33;;
19664;SDS011;9980;51.020;7.772;2023-01-20T11:50:48;15.30;;;11.83;;
19664;SDS011;9980;51.020;7.772;2023-01-20T11:53:22;15.90;;;12.00;;
19664;SDS011;9980;51.020;7.772;2023-01-20T11:55:54;14.43;;;11.77;;
19664;SDS011;9980;51.020;7.772;2023-01-20T11:58:25;15.13;;;12.73;;
19664;SDS011;9980;51.020;7.772;2023-01-20T12:00:58;16.47;;;11.90;;
19664;SDS011;9980;51.020;7.772;2023-01-20T12:06:29;18.23;;;13.20;;
19664;SDS011;9980;51.020;7.772;2023-01-20T12:09:17;17.40;;;12.10;;
19664;SDS011;9980;51.020;7.772;2023-01-20T12:12:03;14.07;;;12.20;;
19664;SDS011;9980;51.020;7.772;2023-01-20T12:14:53;17.23;;;11.33;;
19664;SDS011;9980;51.020;7.772;2023-01-20T12:20:25;12.40;;;11.10;;
19664;SDS011;9980;51.020;7.772;2023-01-20T12:23:16;16.00;;;12.00;;
19664;SDS011;9980;51.020;7.772;2023-01-20T12:26:13;13.13;;;10.80;;
19664;SDS011;9980;51.020;7.772;2023-01-20T12:28:44;13.87;;;11.33;;
19664;SDS011;9980;51.020;7.772;2023-01-20T12:31:37;12.10;;;10.23;;
19664;SDS011;9980;51.020;7.772;2023-01-20T12:34:11;11.63;;;9.70;;
19664;SDS011;9980;51.020;7.772;2023-01-20T12:37:19;13.23;;;10.47;;
19664;SDS011;9980;51.020;7.772;2023-01-20T12:40:07;15.83;;;12.43;;
19664;SDS011;9980;51.020;7.772;2023-01-20T12:45:48;11.97;;;10.67;;
19664;SDS011;9980;51.020;7.772;2023-01-20T13:00:29;15.53;;;11.20;;
19664;SDS011;9980;51.020;7.772;2023-01-20T13:03:28;10.83;;;9.67;;
19664;SDS011;9980;51.020;7.772;2023-01-20T13:15:29;13.17;;;10.23;;
19664;SDS011;9980;51.020;7.772;2023-01-20T13:20:59;12.97;;;10.90;;
19664;SDS011;9980;51.020;7.772;2023-01-20T13:23:26;11.43;;;10.23;;
19664;SDS011;9980;51.020;7.772;2023-01-20T13:26:00;12.87;;;10.27;;
19664;SDS011;9980;51.020;7.772;2023-01-20T13:28:30;13.57;;;10.30;;
19664;SDS011;9980;51.020;7.772;2023-01-20T13:30:57;12.40;;;10.23;;
19664;SDS011;9980;51.020;7.772;2023-01-20T13:50:33;13.77;;;10.57;;
19664;SDS011;9980;51.020;7.772;2023-01-20T13:58:13;11.73;;;9.37;;
19664;SDS011;9980;51.020;7.772;2023-01-20T14:00:40;10.37;;;9.23;;
19664;SDS011;9980;51.020;7.772;2023-01-20T14:05:51;10.13;;;9.10;;
19664;SDS011;9980;51.020;7.772;2023-01-20T14:08:20;9.63;;;8.73;;
19664;SDS011;9980;51.020;7.772;2023-01-20T14:10:50;10.97;;;9.20;;
19664;SDS011;9980;51.020;7.772;2023-01-20T14:13:21;10.17;;;9.03;;
19664;SDS011;9980;51.020;7.772;2023-01-20T14:15:50;10.80;;;9.30;;
19664;SDS011;9980;51.020;7.772;2023-01-20T14:18:20;10.63;;;9.07;;
19664;SDS011;9980;51.020;7.772;2023-01-20T14:21:03;10.60;;;9.53;;
19664;SDS011;9980;51.020;7.772;2023-01-20T14:23:47;11.20;;;9.60;;
19664;SDS011;9980;51.020;7.772;2023-01-20T14:26:24;10.43;;;9.13;;
19664;SDS011;9980;51.020;7.772;2023-01-20T14:28:56;11.37;;;9.17;;
19664;SDS011;9980;51.020;7.772;2023-01-20T14:37:42;15.30;;;11.03;;
19664;SDS011;9980;51.020;7.772;2023-01-20T14:39:52;13.40;;;10.47;;
19664;SDS011;9980;51.020;7.772;2023-01-20T14:42:21;14.33;;;10.60;;
19664;SDS011;9980;51.020;7.772;2023-01-20T14:44:49;13.07;;;11.77;;
19664;SDS011;9980;51.020;7.772;2023-01-20T14:47:19;16.17;;;12.30;;
19664;SDS011;9980;51.020;7.772;2023-01-20T14:49:47;14.00;;;11.93;;
19664;SDS011;9980;51.020;7.772;2023-01-20T14:52:20;15.40;;;11.77;;
19664;SDS011;9980;51.020;7.772;2023-01-20T14:54:52;16.33;;;11.67;;
19664;SDS011;9980;51.020;7.772;2023-01-20T14:57:29;15.10;;;12.87;;
19664;SDS011;9980;51.020;7.772;2023-01-20T15:05:40;16.83;;;13.67;;
19664;SDS011;9980;51.020;7.772;2023-01-20T15:21:45;13.90;;;11.87;;
19664;SDS011;9980;51.020;7.772;2023-01-20T15:24:31;11.93;;;10.67;;
19664;SDS011;9980;51.020;7.772;2023-01-20T15:26:59;19.00;;;13.40;;
19664;SDS011;9980;51.020;7.772;2023-01-20T15:29:32;19.83;;;14.00;;
19664;SDS011;9980;51.020;7.772;2023-01-20T15:32:01;14.57;;;11.20;;
19664;SDS011;9980;51.020;7.772;2023-01-20T15:34:37;16.90;;;13.70;;
19664;SDS011;9980;51.020;7.772;2023-01-20T15:37:08;21.13;;;15.50;;
19664;SDS011;9980;51.020;7.772;2023-01-20T15:39:45;21.70;;;17.37;;
19664;SDS011;9980;51.020;7.772;2023-01-20T15:42:12;18.53;;;14.80;;
19664;SDS011;9980;51.020;7.772;2023-01-20T15:44:39;19.63;;;14.70;;
19664;SDS011;9980;51.020;7.772;2023-01-20T15:47:17;15.97;;;12.63;;
19664;SDS011;9980;51.020;7.772;2023-01-20T15:49:50;15.93;;;13.17;;
19664;SDS011;9980;51.020;7.772;2023-01-20T15:52:16;11.83;;;9.80;;
19664;SDS011;9980;51.020;7.772;2023-01-20T15:54:43;12.83;;;11.50;;
19664;SDS011;9980;51.020;7.772;2023-01-20T15:57:12;13.80;;;12.30;;
19664;SDS011;9980;51.020;7.772;2023-01-20T15:59:41;20.13;;;14.30;;
19664;SDS011;9980;51.020;7.772;2023-01-20T16:02:13;13.47;;;12.07;;
19664;SDS011;9980;51.020;7.772;2023-01-20T16:04:44;14.73;;;11.70;;
19664;SDS011;9980;51.020;7.772;2023-01-20T16:07:14;18.10;;;13.33;;
19664;SDS011;9980;51.020;7.772;2023-01-20T16:09:43;14.97;;;12.03;;
19664;SDS011;9980;51.020;7.772;2023-01-20T16:12:11;20.07;;;13.37;;
19664;SDS011;9980;51.020;7.772;2023-01-20T16:14:40;19.43;;;14.37;;
19664;SDS011;9980;51.020;7.772;2023-01-20T16:17:14;19.73;;;14.57;;
19664;SDS011;9980;51.020;7.772;2023-01-20T16:19:48;15.87;;;12.93;;
19664;SDS011;9980;51.020;7.772;2023-01-20T16:22:15;17.63;;;13.10;;
19664;SDS011;9980;51.020;7.772;2023-01-20T16:24:42;16.10;;;12.77;;
19664;SDS011;9980;51.020;7.772;2023-01-20T16:27:19;12.73;;;10.97;;
19664;SDS011;9980;51.020;7.772;2023-01-20T16:29:47;21.93;;;14.90;;
19664;SDS011;9980;51.020;7.772;2023-01-20T16:32:14;13.87;;;11.80;;
19664;SDS011;9980;51.020;7.772;2023-01-20T16:34:44;15.67;;;13.53;;
19664;SDS011;9980;51.020;7.772;2023-01-20T16:37:12;14.60;;;11.80;;
19664;SDS011;9980;51.020;7.772;2023-01-20T16:39:39;16.47;;;12.93;;
19664;SDS011;9980;51.020;7.772;2023-01-20T16:42:05;15.00;;;12.50;;
19664;SDS011;9980;51.020;7.772;2023-01-20T16:44:33;15.37;;;13.23;;
19664;SDS011;9980;51.020;7.772;2023-01-20T16:46:59;15.37;;;12.27;;
19664;SDS011;9980;51.020;7.772;2023-01-20T16:49:25;19.40;;;15.60;;
19664;SDS011;9980;51.020;7.772;2023-01-20T16:51:51;16.43;;;13.37;;
19664;SDS011;9980;51.020;7.772;2023-01-20T16:54:18;16.50;;;13.93;;
19664;SDS011;9980;51.020;7.772;2023-01-20T16:56:44;15.47;;;12.97;;
19664;SDS011;9980;51.020;7.772;2023-01-20T16:59:10;19.00;;;15.73;;
19664;SDS011;9980;51.020;7.772;2023-01-20T17:01:36;24.27;;;17.20;;
19664;SDS011;9980;51.020;7.772;2023-01-20T17:04:02;22.13;;;15.07;;
19664;SDS011;9980;51.020;7.772;2023-01-20T17:06:30;23.70;;;16.23;;
19664;SDS011;9980;51.020;7.772;2023-01-20T17:08:59;16.87;;;13.80;;
19664;SDS011;9980;51.020;7.772;2023-01-20T17:11:30;20.60;;;14.57;;
19664;SDS011;9980;51.020;7.772;2023-01-20T17:14:00;26.03;;;16.90;;
19664;SDS011;9980;51.020;7.772;2023-01-20T17:16:30;23.80;;;16.57;;
19664;SDS011;9980;51.020;7.772;2023-01-20T17:18:57;20.27;;;14.97;;
19664;SDS011;9980;51.020;7.772;2023-01-20T17:21:26;17.53;;;13.53;;
19664;SDS011;9980;51.020;7.772;2023-01-20T17:23:55;22.03;;;18.00;;